Skip Navigation Links Skip Navigation Links

Current Weather

Noatak, Alaska

For information only: do not use for flight planning or navigation.
Latest weather
Observation time Tuesday, October 26, 2021 10:36 PM AKDT
Local time Tuesday, October 26, 2021 10:54 PM AKDT
Flight conditions Marginal Visual Meteorological Conditions
Winds
Wind direction South (170°)
Wind speed 6 mph
Visibility 6 mi.
Present weather light snow, mist
Sky condition
Ceiling 2,600 ft. broken clouds
Cloud layer broken clouds 2,600 ft.
Cloud layer overcast 3,600 ft.
Temperature 23°F
Dewpoint 21°F
Altimeter 29.53 in.Hg
Precipitation
Precipitation last hour trace
Derived measurements
Relative humidity 93%
Wind chill 16°F
Density altitude -1865 ft.
Remarks
Fully automated report.
Automated weather observing station with precipitation discriminator.
Freezing rain sensor not operating.
METAR PAWN 270636Z AUTO 17005KT 6SM -SN BR BKN026 OVC036 M05/M06 A2953 RMK AO2 P0000 FZRANO

Settings

Location code

InnerDrive.Weather 4.0.6770.0 Release CLR 4.0.30319.42000
Copyright ©2018 Inner Drive Technology. All rights reserved. Portions Copyright ©1986-2018 David Braverman.

Find weather

Site navigation


Skip Navigation Links

Place info

Page info

PayPal - The safer, easier way to pay online!

Return home.

Copyright ©2021 Inner Drive Technology. Purveyors of fine, hand-crafted computer software. Page printed 2021-10-27T06:54:32 UTC.